Time;durP1;ratioP1;P1;durP2;ratioP2;P2;SDS_P1;SDS_P2;PMS_P1;PMS_P2;Temp;Humidity;BMP_temperature;BMP_pressure;BME280_temperature;BME280_humidity;BME280_pressure;Samples;Min_cycle;Max_cycle;Signal;HPM_P1;HPM_P2
2022/10/27 00:01:35;;;;;;;12.17;3.63;;;12.60;99.90;;;;;;5076409;28;20045;-72
2022/10/27 00:04:01;;;;;;;11.90;3.27;;;12.60;99.90;;;;;;5076266;28;20469;-72
2022/10/27 00:06:27;;;;;;;16.17;4.63;;;12.60;99.90;;;;;;5076076;28;20419;-72
2022/10/27 00:08:52;;;;;;;15.97;3.83;;;12.60;99.90;;;;;;5076329;28;20403;-72
2022/10/27 00:11:18;;;;;;;12.87;3.67;;;12.60;99.90;;;;;;5075967;28;20058;-72
2022/10/27 00:13:44;;;;;;;14.00;3.77;;;12.60;99.90;;;;;;5076262;28;20066;-72
2022/10/27 00:16:15;;;;;;;14.37;4.37;;;12.60;99.90;;;;;;5075863;28;20048;-72
2022/10/27 00:18:43;;;;;;;9.90;3.53;;;12.60;99.90;;;;;;5076065;28;20040;-72
2022/10/27 00:21:11;;;;;;;10.30;4.03;;;12.60;99.90;;;;;;5074726;28;20321;-72
2022/10/27 00:23:37;;;;;;;10.70;3.43;;;12.60;99.90;;;;;;5075511;28;20381;-72
2022/10/27 00:26:04;;;;;;;10.93;3.47;;;12.60;99.90;;;;;;5075889;28;20275;-72
2022/10/27 00:28:31;;;;;;;15.33;4.37;;;12.50;99.90;;;;;;5076214;28;20282;-72
2022/10/27 00:31:02;;;;;;;12.57;3.40;;;12.50;99.90;;;;;;5075814;28;20286;-72
2022/10/27 00:33:28;;;;;;;11.70;3.80;;;12.50;99.90;;;;;;5074587;28;20291;-72
2022/10/27 00:35:54;;;;;;;11.50;3.40;;;12.50;99.90;;;;;;5074575;28;20290;-72
2022/10/27 00:38:23;;;;;;;14.20;3.67;;;12.50;99.90;;;;;;5075446;28;20059;-72
2022/10/27 00:40:49;;;;;;;10.73;3.50;;;12.40;99.90;;;;;;5074357;28;20055;-72
2022/10/27 00:43:25;;;;;;;12.67;4.23;;;12.40;99.90;;;;;;5075290;28;20651;-72
2022/10/27 00:45:52;;;;;;;10.37;4.50;;;12.40;99.90;;;;;;5075520;28;20052;-72
2022/10/27 00:48:17;;;;;;;14.53;5.33;;;12.40;99.90;;;;;;5075287;28;20279;-72
2022/10/27 00:50:44;;;;;;;19.03;6.37;;;12.40;99.90;;;;;;5075517;28;20719;-72
2022/10/27 00:53:10;;;;;;;14.73;6.80;;;12.50;99.90;;;;;;5075291;28;20507;-72
2022/10/27 00:55:38;;;;;;;13.57;6.40;;;12.50;99.90;;;;;;5075448;28;20348;-72
2022/10/27 00:58:07;;;;;;;14.60;7.10;;;12.50;99.90;;;;;;5074696;28;20063;-72
2022/10/27 01:00:35;;;;;;;15.10;7.50;;;12.50;99.90;;;;;;5075041;28;20341;-72
2022/10/27 01:03:02;;;;;;;19.47;8.23;;;12.50;99.90;;;;;;5075178;28;20356;-72
2022/10/27 01:05:28;;;;;;;13.80;8.40;;;12.50;99.90;;;;;;5074965;28;20275;-72
2022/10/27 01:07:58;;;;;;;18.20;9.53;;;12.60;99.90;;;;;;5075157;28;20283;-72
2022/10/27 01:10:25;;;;;;;15.90;8.93;;;12.60;99.90;;;;;;5074912;28;20286;-72
2022/10/27 01:12:53;;;;;;;13.53;8.70;;;12.60;99.90;;;;;;5075030;28;20278;-72
2022/10/27 01:15:21;;;;;;;18.10;9.73;;;12.60;99.90;;;;;;5074670;28;20694;-72
2022/10/27 01:18:00;;;;;;;19.00;10.20;;;12.60;99.90;;;;;;5074952;28;20348;-72
2022/10/27 01:20:41;;;;;;;17.47;9.40;;;12.60;99.90;;;;;;5074706;28;20283;-72
2022/10/27 01:23:20;;;;;;;18.20;10.00;;;12.60;99.90;;;;;;5075056;28;20320;-72
2022/10/27 01:25:46;;;;;;;20.43;10.90;;;12.70;99.90;;;;;;5075278;28;20295;-72
2022/10/27 01:28:14;;;;;;;18.53;9.37;;;12.70;99.90;;;;;;5074613;28;20363;-78
2022/10/27 01:31:04;;;;;;;14.97;9.40;;;12.70;99.90;;;;;;5074748;28;20048;-72
2022/10/27 01:34:00;;;;;;;16.33;9.27;;;12.70;99.90;;;;;;5074492;28;20344;-72
2022/10/27 01:36:45;;;;;;;15.07;8.35;;;12.70;99.90;;;;;;5073496;28;20290;-72
2022/10/27 01:39:29;;;;;;;13.13;8.43;;;12.70;99.90;;;;;;5074625;28;20048;-72
2022/10/27 01:42:08;;;;;;;14.13;9.00;;;12.70;99.90;;;;;;5074500;28;20275;-71
2022/10/27 01:44:46;;;;;;;14.93;8.87;;;12.60;99.90;;;;;;5074259;28;20884;-72
2022/10/27 01:47:13;;;;;;;19.43;10.83;;;12.60;99.90;;;;;;5073042;28;20279;-72
2022/10/27 01:49:41;;;;;;;24.60;11.13;;;12.70;99.90;;;;;;5074532;28;20274;-72
2022/10/27 01:52:36;;;;;;;13.67;9.57;;;12.70;99.90;;;;;;5074307;28;20416;-71
2022/10/27 01:55:02;;;;;;;16.73;10.03;;;12.70;99.90;;;;;;5074505;28;20607;-72
2022/10/27 01:57:40;;;;;;;17.47;10.73;;;12.70;99.90;;;;;;5073889;28;20282;-72
2022/10/27 02:00:07;;;;;;;18.60;10.87;;;12.60;99.90;;;;;;5074142;28;20278;-72
2022/10/27 02:02:41;;;;;;;21.87;11.30;;;12.70;99.90;;;;;;5073656;28;20299;-72
2022/10/27 02:05:13;;;;;;;17.90;11.23;;;12.70;99.90;;;;;;5072918;28;20332;-72
2022/10/27 02:07:54;;;;;;;20.60;11.47;;;12.70;99.90;;;;;;5073596;28;20286;-72
2022/10/27 02:10:53;;;;;;;18.30;11.70;;;12.70;99.90;;;;;;5073153;28;20362;-72
2022/10/27 02:13:19;;;;;;;19.93;11.73;;;12.80;99.90;;;;;;5073241;28;20286;-72
2022/10/27 02:16:14;;;;;;;21.10;11.13;;;12.80;99.90;;;;;;5073837;28;20286;-72
2022/10/27 02:18:47;;;;;;;25.50;12.33;;;12.80;99.90;;;;;;5058082;28;20302;-72
2022/10/27 02:21:15;;;;;;;25.43;12.97;;;12.80;99.90;;;;;;5073984;28;20279;-72
2022/10/27 02:23:41;;;;;;;19.60;12.37;;;12.80;99.90;;;;;;5073190;28;20359;-72
2022/10/27 02:26:30;;;;;;;20.87;12.40;;;12.80;99.90;;;;;;5073616;28;20642;-72
2022/10/27 02:29:28;;;;;;;26.83;12.53;;;12.80;99.90;;;;;;5072436;28;20630;-72
2022/10/27 02:31:57;;;;;;;19.00;12.27;;;12.90;99.90;;;;;;5072772;28;20295;-72
2022/10/27 02:34:24;;;;;;;19.53;12.20;;;12.90;99.90;;;;;;5073176;28;20278;-72
2022/10/27 02:36:50;;;;;;;21.00;11.50;;;12.90;99.90;;;;;;5072491;28;20287;-72
2022/10/27 02:39:16;;;;;;;21.97;12.27;;;12.90;99.90;;;;;;5073384;28;20282;-72
2022/10/27 02:41:42;;;;;;;22.73;12.13;;;13.00;99.90;;;;;;5073150;28;20282;-72
2022/10/27 02:44:07;;;;;;;22.53;11.67;;;13.00;99.90;;;;;;5073395;28;20040;-72
2022/10/27 02:46:33;;;;;;;19.50;12.20;;;13.00;99.90;;;;;;5072948;28;20131;-72
2022/10/27 02:48:59;;;;;;;21.80;12.20;;;13.10;99.90;;;;;;5073599;28;20040;-72
2022/10/27 02:51:24;;;;;;;20.03;11.83;;;13.10;99.90;;;;;;5072956;28;20068;-72
2022/10/27 02:53:50;;;;;;;19.40;12.03;;;13.10;99.90;;;;;;5073580;28;20036;-72
2022/10/27 02:56:16;;;;;;;20.30;12.37;;;13.20;99.90;;;;;;5073183;28;20048;-72
2022/10/27 02:58:41;;;;;;;22.10;12.73;;;13.20;99.90;;;;;;5072930;28;20229;-72
2022/10/27 03:01:07;;;;;;;19.00;11.90;;;13.20;99.90;;;;;;5073240;28;20057;-72
2022/10/27 03:03:33;;;;;;;20.83;12.70;;;13.30;99.90;;;;;;5072638;28;20040;-72
2022/10/27 03:05:58;;;;;;;19.70;11.30;;;13.30;99.90;;;;;;5072040;28;20106;-72
2022/10/27 03:08:24;;;;;;;21.80;13.27;;;13.30;99.90;;;;;;5072824;28;20083;-72
2022/10/27 03:10:50;;;;;;;22.57;13.20;;;13.30;99.90;;;;;;5072101;28;20431;-72
2022/10/27 03:13:15;;;;;;;25.90;12.70;;;13.30;99.90;;;;;;5072926;28;20047;-72
2022/10/27 03:15:43;;;;;;;21.23;12.53;;;13.30;99.90;;;;;;5072717;28;20052;-72
2022/10/27 03:18:09;;;;;;;24.60;12.53;;;13.30;99.90;;;;;;5073103;28;20048;-72
2022/10/27 03:20:34;;;;;;;21.80;12.50;;;13.40;99.90;;;;;;5072336;28;20298;-72
2022/10/27 03:23:00;;;;;;;19.77;11.87;;;13.40;99.90;;;;;;5072472;28;20052;-72
2022/10/27 03:25:26;;;;;;;16.97;11.03;;;13.40;99.90;;;;;;5072100;28;20056;-72
2022/10/27 03:27:52;;;;;;;18.73;11.03;;;13.40;99.90;;;;;;5072900;28;20125;-72
2022/10/27 03:30:17;;;;;;;23.23;12.13;;;13.40;99.90;;;;;;5072780;28;20106;-72
2022/10/27 03:32:50;;;;;;;20.07;10.23;;;13.40;99.90;;;;;;5071529;28;20049;-72
2022/10/27 03:35:18;;;;;;;21.57;11.03;;;13.40;99.90;;;;;;5072789;28;20048;-72
2022/10/27 03:37:43;;;;;;;19.83;10.90;;;13.40;99.90;;;;;;5072450;28;20763;-72
2022/10/27 03:40:10;;;;;;;19.47;10.90;;;13.30;99.90;;;;;;5072643;28;20285;-72
2022/10/27 03:42:41;;;;;;;19.07;11.30;;;13.40;99.90;;;;;;5072391;28;20052;-72
2022/10/27 03:45:08;;;;;;;19.70;12.00;;;13.40;99.90;;;;;;5072839;28;20306;-72
2022/10/27 03:47:34;;;;;;;23.60;11.20;;;13.40;99.90;;;;;;5072446;28;20286;-72
2022/10/27 03:49:59;;;;;;;20.23;12.17;;;13.40;99.90;;;;;;5072624;28;20285;-72
2022/10/27 03:52:25;;;;;;;24.00;11.63;;;13.40;99.90;;;;;;5072676;28;20529;-72
2022/10/27 03:54:51;;;;;;;20.63;11.57;;;13.40;99.90;;;;;;5071300;28;20397;-72
2022/10/27 03:57:17;;;;;;;18.00;10.77;;;13.40;99.90;;;;;;5072877;28;20380;-72
2022/10/27 03:59:43;;;;;;;16.10;11.40;;;13.40;99.90;;;;;;5072144;28;20048;-72
2022/10/27 04:02:08;;;;;;;17.03;10.07;;;13.40;99.90;;;;;;5072606;28;20900;-72
2022/10/27 04:04:34;;;;;;;15.67;11.03;;;13.40;99.90;;;;;;5071004;28;20053;-72
2022/10/27 04:07:00;;;;;;;21.10;11.50;;;13.40;99.90;;;;;;5072333;28;20119;-72
2022/10/27 04:09:25;;;;;;;17.47;11.20;;;13.40;99.90;;;;;;5072358;28;20044;-72
2022/10/27 04:11:51;;;;;;;16.60;11.10;;;13.40;99.90;;;;;;5071713;28;20083;-72
2022/10/27 04:14:16;;;;;;;15.23;10.57;;;13.30;99.90;;;;;;5072334;28;20058;-72
2022/10/27 04:16:42;;;;;;;20.07;10.87;;;13.40;99.90;;;;;;5072020;28;20477;-72
2022/10/27 04:19:10;;;;;;;22.43;11.27;;;13.30;99.90;;;;;;5072398;28;20078;-72
2022/10/27 04:21:35;;;;;;;23.07;11.67;;;13.30;99.90;;;;;;5071970;28;20048;-72
2022/10/27 04:24:01;;;;;;;18.70;11.50;;;13.30;99.90;;;;;;5071858;28;20301;-72
2022/10/27 04:26:27;;;;;;;21.47;12.43;;;13.30;99.90;;;;;;5071373;28;20060;-72
2022/10/27 04:28:52;;;;;;;19.53;11.73;;;13.30;99.90;;;;;;5071983;28;20052;-72
2022/10/27 04:31:18;;;;;;;19.00;11.77;;;13.20;99.90;;;;;;5072386;28;20041;-72
2022/10/27 04:33:44;;;;;;;15.40;10.37;;;13.30;99.90;;;;;;5075381;28;20072;-72
2022/10/27 04:36:09;;;;;;;17.97;10.83;;;13.30;99.90;;;;;;5076087;28;20041;-72
2022/10/27 04:38:35;;;;;;;21.57;12.10;;;13.30;99.90;;;;;;5075541;28;20546;-72
2022/10/27 04:41:01;;;;;;;19.63;11.47;;;13.20;99.90;;;;;;5075766;28;20048;-72
2022/10/27 04:43:27;;;;;;;21.40;11.50;;;13.20;99.90;;;;;;5075726;28;20048;-72
2022/10/27 04:45:53;;;;;;;18.90;11.23;;;13.20;99.90;;;;;;5075391;28;20511;-72
2022/10/27 04:48:18;;;;;;;19.10;10.90;;;13.20;99.90;;;;;;5074533;28;20278;-72
2022/10/27 04:50:44;;;;;;;19.97;11.40;;;13.20;99.90;;;;;;5075337;28;20493;-72
2022/10/27 04:53:10;;;;;;;18.33;10.43;;;13.20;99.90;;;;;;5074361;28;20497;-72
2022/10/27 04:55:35;;;;;;;20.73;11.27;;;13.20;99.90;;;;;;5075385;28;20051;-76
2022/10/27 04:58:01;;;;;;;19.43;10.43;;;13.20;99.90;;;;;;5073982;28;20465;-72
2022/10/27 05:00:27;;;;;;;19.47;11.27;;;13.20;99.90;;;;;;5075507;28;20060;-72
2022/10/27 05:02:58;;;;;;;17.83;10.73;;;13.20;99.90;;;;;;5073942;28;20453;-72
2022/10/27 05:05:25;;;;;;;17.90;10.63;;;13.20;99.90;;;;;;5075346;28;20141;-72
2022/10/27 05:08:01;;;;;;;16.87;10.40;;;13.20;99.90;;;;;;5075075;28;20616;-72
2022/10/27 05:10:29;;;;;;;18.77;10.73;;;13.20;99.90;;;;;;5075285;28;20286;-72
2022/10/27 05:12:55;;;;;;;24.60;11.40;;;13.20;99.90;;;;;;5074876;28;20314;-72
2022/10/27 05:15:21;;;;;;;17.73;10.87;;;13.30;99.90;;;;;;5074047;28;20322;-72
2022/10/27 05:17:47;;;;;;;16.73;10.13;;;13.30;99.90;;;;;;5074842;28;20404;-72
2022/10/27 05:20:13;;;;;;;18.77;11.33;;;13.30;99.90;;;;;;5073591;28;20052;-72
2022/10/27 05:22:39;;;;;;;20.33;10.70;;;13.40;99.90;;;;;;5074609;28;20040;-72
2022/10/27 05:25:06;;;;;;;17.30;10.77;;;13.40;99.90;;;;;;5074906;28;20291;-72
2022/10/27 05:27:32;;;;;;;18.83;11.57;;;13.40;99.90;;;;;;5074818;28;20052;-72
2022/10/27 05:29:58;;;;;;;16.73;10.97;;;13.40;99.90;;;;;;5074582;28;21234;-72
2022/10/27 05:32:24;;;;;;;18.23;10.60;;;13.50;99.90;;;;;;5073668;28;20055;-72
2022/10/27 05:34:50;;;;;;;16.87;10.03;;;13.50;99.90;;;;;;5074528;28;20044;-72
2022/10/27 05:37:15;;;;;;;16.80;11.13;;;13.50;99.90;;;;;;5075132;28;20071;-72
2022/10/27 05:39:41;;;;;;;19.43;11.10;;;13.50;99.90;;;;;;5074103;28;20052;-73
2022/10/27 05:42:07;;;;;;;16.87;10.60;;;13.50;99.90;;;;;;5073342;28;20045;-72
2022/10/27 05:44:32;;;;;;;19.80;10.63;;;13.50;99.90;;;;;;5074589;28;20044;-72
2022/10/27 05:46:58;;;;;;;24.40;10.50;;;13.60;99.90;;;;;;5074310;28;20041;-72
2022/10/27 05:49:24;;;;;;;18.97;10.70;;;13.60;99.90;;;;;;5074244;28;20473;-72
2022/10/27 05:51:51;;;;;;;18.23;11.50;;;13.60;99.90;;;;;;5074121;28;20115;-72
2022/10/27 05:54:17;;;;;;;25.53;10.43;;;13.60;99.90;;;;;;5073141;28;20044;-72
2022/10/27 05:56:42;;;;;;;16.13;10.33;;;13.60;99.90;;;;;;5074112;28;20275;-73
2022/10/27 05:59:12;;;;;;;17.20;10.33;;;13.50;99.90;;;;;;5074439;28;20746;-72
2022/10/27 06:01:38;;;;;;;17.63;10.47;;;13.60;99.90;;;;;;5074155;28;20045;-72
2022/10/27 06:04:04;;;;;;;25.73;12.30;;;13.50;99.90;;;;;;5073695;28;20360;-71
2022/10/27 06:06:29;;;;;;;18.13;10.50;;;13.60;99.90;;;;;;5074134;28;20047;-71
2022/10/27 06:08:55;;;;;;;22.00;11.03;;;13.60;99.90;;;;;;5073706;28;20074;-71
2022/10/27 06:11:21;;;;;;;17.73;11.17;;;13.60;99.90;;;;;;5073936;28;20089;-71
2022/10/27 06:13:50;;;;;;;19.50;11.60;;;13.50;99.90;;;;;;5073634;28;20516;-72
2022/10/27 06:16:20;;;;;;;19.87;11.67;;;13.50;99.90;;;;;;5073822;28;20049;-71
2022/10/27 06:18:46;;;;;;;18.77;11.83;;;13.50;99.90;;;;;;5073543;28;20278;-72
2022/10/27 06:21:11;;;;;;;21.07;11.20;;;13.50;99.90;;;;;;5073759;28;20643;-72
2022/10/27 06:23:39;;;;;;;25.83;12.00;;;13.50;99.90;;;;;;5073474;28;20041;-72
2022/10/27 06:26:05;;;;;;;19.93;11.97;;;13.50;99.90;;;;;;5072932;28;20099;-71
2022/10/27 06:28:30;;;;;;;21.37;11.43;;;13.50;99.90;;;;;;5073620;28;20337;-71
2022/10/27 06:30:56;;;;;;;27.30;12.10;;;13.50;99.90;;;;;;5073649;28;20052;-71
2022/10/27 06:33:22;;;;;;;18.17;11.77;;;13.50;99.90;;;;;;5073563;28;20072;-71
2022/10/27 06:35:48;;;;;;;19.90;11.23;;;13.50;99.90;;;;;;5072928;28;20154;-72
2022/10/27 06:38:15;;;;;;;17.33;11.30;;;13.50;99.90;;;;;;5073455;28;20472;-72
2022/10/27 06:40:44;;;;;;;19.03;12.33;;;13.50;99.90;;;;;;5072457;28;20053;-72
2022/10/27 06:43:11;;;;;;;19.10;11.67;;;13.40;99.90;;;;;;5072963;28;20302;-72
2022/10/27 06:45:37;;;;;;;19.17;11.77;;;13.40;99.90;;;;;;5073355;28;20291;-71
2022/10/27 06:48:05;;;;;;;20.23;12.70;;;13.40;99.90;;;;;;5073020;28;20040;-71
2022/10/27 06:50:31;;;;;;;16.63;11.27;;;13.40;99.90;;;;;;5073324;28;20275;-71
2022/10/27 06:52:58;;;;;;;16.67;11.67;;;13.50;99.90;;;;;;5072621;28;20362;-71
2022/10/27 06:55:24;;;;;;;19.13;12.70;;;13.50;99.90;;;;;;5072673;28;20057;-72
2022/10/27 06:57:49;;;;;;;17.37;12.17;;;13.50;99.90;;;;;;5072920;28;20323;-72
2022/10/27 07:00:16;;;;;;;18.30;11.53;;;13.50;99.90;;;;;;5073184;28;20313;-72
2022/10/27 07:02:41;;;;;;;18.93;11.47;;;13.50;99.90;;;;;;5072183;28;20540;-70
2022/10/27 07:05:08;;;;;;;16.80;11.37;;;13.50;99.90;;;;;;5072760;28;20373;-71
2022/10/27 07:07:35;;;;;;;18.20;12.00;;;13.50;99.90;;;;;;5071791;28;20083;-72
2022/10/27 07:10:01;;;;;;;18.13;12.00;;;13.50;99.90;;;;;;5072689;28;20282;-71
2022/10/27 07:12:26;;;;;;;22.17;10.93;;;13.60;99.90;;;;;;5073080;28;20631;-72
2022/10/27 07:14:52;;;;;;;18.10;11.03;;;13.60;99.90;;;;;;5072659;28;20333;-72
2022/10/27 07:17:18;;;;;;;15.57;10.80;;;13.60;99.90;;;;;;5072952;28;20245;-71
2022/10/27 07:19:43;;;;;;;14.27;10.73;;;13.60;99.90;;;;;;5073156;28;20052;-72
2022/10/27 07:22:09;;;;;;;18.93;11.37;;;13.60;99.90;;;;;;5072294;28;20079;-72
2022/10/27 07:24:35;;;;;;;13.70;10.87;;;13.60;99.90;;;;;;5072604;28;20122;-72
2022/10/27 07:27:01;;;;;;;18.20;10.70;;;13.70;99.90;;;;;;5072652;28;20056;-72
2022/10/27 07:29:27;;;;;;;15.33;9.63;;;13.70;99.90;;;;;;5072896;28;20442;-72
2022/10/27 07:31:52;;;;;;;15.63;9.30;;;13.70;99.90;;;;;;5072740;28;20131;-73
2022/10/27 07:34:18;;;;;;;13.23;8.97;;;13.70;99.90;;;;;;5072530;28;20041;-72
2022/10/27 07:36:44;;;;;;;15.37;8.90;;;13.70;99.90;;;;;;5072885;28;20087;-71
2022/10/27 07:39:09;;;;;;;16.33;9.17;;;13.80;99.90;;;;;;5072526;28;20036;-71
2022/10/27 07:41:35;;;;;;;13.67;8.37;;;13.80;99.90;;;;;;5073071;28;20045;-71
2022/10/27 07:44:01;;;;;;;14.47;8.23;;;13.80;99.90;;;;;;5072401;28;20469;-72
2022/10/27 07:46:28;;;;;;;12.13;7.57;;;13.90;99.90;;;;;;5072712;28;20052;-71
2022/10/27 07:48:54;;;;;;;15.77;8.20;;;13.90;99.90;;;;;;5072335;28;20052;-74
2022/10/27 07:51:19;;;;;;;12.80;7.87;;;13.90;99.90;;;;;;5071452;28;20279;-71
2022/10/27 07:53:45;;;;;;;15.67;6.97;;;13.90;99.90;;;;;;5072620;28;20132;-72
2022/10/27 07:56:11;;;;;;;16.13;8.33;;;14.00;99.90;;;;;;5072308;28;20105;-72
2022/10/27 07:58:36;;;;;;;14.10;7.93;;;14.00;99.90;;;;;;5072576;28;20052;-72
2022/10/27 08:01:04;;;;;;;15.20;7.23;;;14.10;99.90;;;;;;5072333;28;20127;-73
2022/10/27 08:03:30;;;;;;;12.40;7.03;;;14.10;99.90;;;;;;5072710;28;20041;-72
2022/10/27 08:06:01;;;;;;;12.43;6.77;;;14.20;99.90;;;;;;5072421;28;20048;-73
2022/10/27 08:08:28;;;;;;;14.33;6.70;;;14.20;99.90;;;;;;5075963;28;20122;-72
2022/10/27 08:10:53;;;;;;;12.37;6.90;;;14.20;99.90;;;;;;5075345;28;20049;-72
2022/10/27 08:13:19;;;;;;;14.87;6.57;;;14.30;99.90;;;;;;5076180;28;20089;-72
2022/10/27 08:15:45;;;;;;;10.67;6.57;;;14.30;99.90;;;;;;5076358;28;20121;-72
2022/10/27 08:18:11;;;;;;;12.20;5.73;;;14.30;99.90;;;;;;5076112;28;20485;-72
2022/10/27 08:20:40;;;;;;;10.53;5.90;;;14.30;99.90;;;;;;5076263;28;20045;-73
2022/10/27 08:23:09;;;;;;;15.17;6.77;;;14.30;99.90;;;;;;5075867;28;20422;-73
2022/10/27 08:25:35;;;;;;;16.40;6.80;;;14.30;99.90;;;;;;5076003;28;20095;-73
2022/10/27 08:28:01;;;;;;;12.03;5.67;;;14.30;99.90;;;;;;5075779;28;20480;-75
2022/10/27 08:30:28;;;;;;;21.43;6.23;;;14.40;99.90;;;;;;5075972;28;20127;-71
2022/10/27 08:32:59;;;;;;;11.80;6.40;;;14.40;99.90;;;;;;5075818;28;20275;-70
2022/10/27 08:35:27;;;;;;;11.63;6.17;;;14.40;99.90;;;;;;5074980;28;20055;-71
2022/10/27 08:38:25;;;;;;;10.57;5.80;;;14.50;99.90;;;;;;5075814;28;20056;-72
2022/10/27 08:41:12;;;;;;;11.40;5.20;;;14.60;99.90;;;;;;5052449;28;20056;-71
2022/10/27 08:43:55;;;;;;;12.13;6.13;;;14.70;99.90;;;;;;5075795;28;20080;-69
2022/10/27 08:46:31;;;;;;;9.60;5.33;;;14.80;99.90;;;;;;5075402;28;20049;-71
2022/10/27 08:49:01;;;;;;;11.67;5.93;;;14.90;99.90;;;;;;5075744;28;20045;-70
2022/10/27 08:51:29;;;;;;;12.60;4.93;;;15.00;99.90;;;;;;5075710;28;20495;-70
2022/10/27 08:53:55;;;;;;;16.13;5.90;;;15.00;99.90;;;;;;5075587;28;20036;-70
2022/10/27 08:56:24;;;;;;;13.80;5.53;;;15.20;99.90;;;;;;5075213;28;20450;-70
2022/10/27 08:58:50;;;;;;;10.33;4.93;;;15.20;99.90;;;;;;5075399;28;20492;-71
2022/10/27 09:01:28;;;;;;;10.87;5.30;;;15.20;99.90;;;;;;5075292;28;20109;-75
2022/10/27 09:04:12;;;;;;;8.53;5.10;;;15.30;99.90;;;;;;5075163;28;20048;-72
2022/10/27 09:07:09;;;;;;;12.57;5.43;;;15.30;99.90;;;;;;5075470;28;20056;-71
2022/10/27 09:09:52;;;;;;;9.00;5.50;;;15.30;99.90;;;;;;5075259;28;20044;-71
2022/10/27 09:12:33;;;;;;;13.03;4.70;;;15.30;99.90;;;;;;5074654;28;20461;-70
2022/10/27 09:15:26;;;;;;;9.77;4.97;;;15.30;99.90;;;;;;5075184;28;20052;-70
2022/10/27 09:18:01;;;;;;;12.80;5.47;;;15.40;99.90;;;;;;5073969;28;20056;-70
2022/10/27 09:20:39;;;;;;;11.05;4.50;;;15.50;99.90;;;;;;5074545;28;20485;-70
2022/10/27 09:23:11;;;;;;;10.67;5.07;;;15.50;99.90;;;;;;5074670;28;20113;-71
2022/10/27 09:25:40;;;;;;;8.63;4.77;;;15.60;99.90;;;;;;5074890;28;20465;-72
2022/10/27 09:28:10;;;;;;;10.37;4.70;;;15.70;99.90;;;;;;5074731;28;20397;-73
2022/10/27 09:30:39;;;;;;;11.17;4.87;;;15.70;99.90;;;;;;5075225;28;20432;-75
2022/10/27 09:33:12;;;;;;;10.67;5.10;;;15.80;99.90;;;;;;5073877;28;20373;-76
2022/10/27 09:35:38;;;;;;;8.80;4.27;;;15.80;99.90;;;;;;5074829;28;20476;-73
2022/10/27 09:38:12;;;;;;;9.37;4.70;;;15.90;99.90;;;;;;5074865;28;20049;-73
2022/10/27 09:40:37;;;;;;;11.47;4.53;;;15.90;99.90;;;;;;5075051;28;20125;-72
2022/10/27 09:43:03;;;;;;;9.00;4.43;;;16.00;99.90;;;;;;5074580;28;20041;-73
2022/10/27 09:45:29;;;;;;;9.43;4.73;;;16.10;99.90;;;;;;5074335;28;20053;-71
2022/10/27 09:47:58;;;;;;;10.93;4.73;;;16.10;99.90;;;;;;5074548;28;20496;-71
2022/10/27 09:50:38;;;;;;;9.23;4.53;;;16.10;99.90;;;;;;5074222;28;20052;-74
2022/10/27 09:53:04;;;;;;;15.33;4.27;;;16.10;99.90;;;;;;5074690;28;20049;-73
2022/10/27 09:55:50;;;;;;;9.03;4.63;;;16.20;99.90;;;;;;5074208;28;20389;-73
2022/10/27 09:58:18;;;;;;;11.97;4.87;;;16.20;99.90;;;;;;5074214;28;20109;-74
2022/10/27 10:00:43;;;;;;;9.97;4.50;;;16.30;99.90;;;;;;5073131;28;20484;-73
2022/10/27 10:03:20;;;;;;;11.07;4.20;;;16.30;99.90;;;;;;5073970;28;20051;-74
2022/10/27 10:06:04;;;;;;;11.43;4.43;;;16.40;99.90;;;;;;5074179;28;20161;-74
2022/10/27 10:08:35;;;;;;;11.03;4.43;;;16.40;99.90;;;;;;5073993;28;20049;-73
2022/10/27 10:11:17;;;;;;;9.03;3.80;;;16.50;99.90;;;;;;5074193;28;20044;-73
2022/10/27 10:13:58;;;;;;;16.77;4.70;;;16.50;99.90;;;;;;5073883;28;20489;-75
2022/10/27 10:16:27;;;;;;;14.07;4.20;;;16.60;99.90;;;;;;5073206;28;20488;-73
2022/10/27 10:19:06;;;;;;;9.00;4.10;;;16.70;99.90;;;;;;5073752;28;20102;-75
2022/10/27 10:21:48;;;;;;;8.23;3.67;;;16.70;99.90;;;;;;5073498;28;20048;-74
2022/10/27 10:24:35;;;;;;;10.73;3.47;;;16.80;99.90;;;;;;5073396;28;20155;-70
2022/10/27 10:27:04;;;;;;;11.60;3.50;;;16.90;99.90;;;;;;5073499;28;20041;-72
2022/10/27 10:29:32;;;;;;;8.80;3.30;;;17.00;99.90;;;;;;5072533;28;20476;-71
2022/10/27 10:32:21;;;;;;;8.00;3.43;;;17.00;99.90;;;;;;5073568;28;20117;-74
2022/10/27 10:34:50;;;;;;;8.93;2.90;;;17.00;99.90;;;;;;5073513;28;20087;-73
2022/10/27 10:37:38;;;;;;;10.30;3.67;;;17.10;99.90;;;;;;5073267;28;20070;-78
2022/10/27 10:40:10;;;;;;;9.27;3.40;;;17.10;99.90;;;;;;5073144;28;20489;-82
2022/10/27 10:42:35;;;;;;;7.17;3.03;;;17.10;99.90;;;;;;5072734;28;20485;-70
2022/10/27 10:45:18;;;;;;;7.87;3.30;;;17.20;99.90;;;;;;5073411;28;20078;-83
2022/10/27 10:47:50;;;;;;;8.33;2.73;;;17.20;99.90;;;;;;5073092;28;20120;-70
2022/10/27 10:50:16;;;;;;;7.70;3.07;;;17.20;99.90;;;;;;5072700;28;20488;-73
2022/10/27 10:52:49;;;;;;;10.13;2.97;;;17.30;99.90;;;;;;5073303;28;20094;-69
2022/10/27 10:55:28;;;;;;;13.40;3.50;;;17.40;99.90;;;;;;5073161;28;20048;-69
2022/10/27 10:57:56;;;;;;;8.43;3.40;;;17.30;99.90;;;;;;5073043;28;20048;-80
2022/10/27 11:00:22;;;;;;;9.17;3.07;;;17.40;99.90;;;;;;5072844;28;20119;-68
2022/10/27 11:02:57;;;;;;;7.90;2.73;;;17.40;99.90;;;;;;5072967;28;20457;-67
2022/10/27 11:05:27;;;;;;;;;;;17.40;99.90;;;;;;5073474;28;20087;-69
2022/10/27 11:07:53;;;;;;;7.67;3.03;;;17.50;99.90;;;;;;5072126;28;20331;-69
2022/10/27 11:10:21;;;;;;;6.33;2.43;;;17.50;99.90;;;;;;5072719;28;20044;-70
2022/10/27 11:13:10;;;;;;;7.73;3.00;;;17.60;99.90;;;;;;5073004;28;20052;-70
2022/10/27 11:15:49;;;;;;;8.33;2.97;;;17.60;99.90;;;;;;5071558;28;20060;-69
2022/10/27 11:18:17;;;;;;;8.27;2.60;;;17.60;99.90;;;;;;5073040;28;20088;-70
2022/10/27 11:20:47;;;;;;;7.87;2.47;;;17.70;99.90;;;;;;5072983;28;20053;-70
2022/10/27 11:23:28;;;;;;;7.60;2.47;;;17.60;99.90;;;;;;5071972;28;20118;-69
2022/10/27 11:26:01;;;;;;;7.20;2.20;;;17.70;99.90;;;;;;5072894;28;20482;-71
2022/10/27 11:29:06;;;;;;;7.47;3.30;;;17.80;99.90;;;;;;5072647;28;20098;-76
2022/10/27 11:31:51;;;;;;;10.63;2.60;;;17.80;99.90;;;;;;5072576;28;20042;-68
2022/10/27 11:34:35;;;;;;;8.60;2.38;;;17.90;99.90;;;;;;5072711;28;20523;-69
2022/10/27 11:37:07;;;;;;;8.23;2.33;;;18.00;99.90;;;;;;5072806;28;20059;-67
2022/10/27 11:39:55;;;;;;;7.77;2.10;;;18.10;99.90;;;;;;5071686;28;20523;-68
2022/10/27 11:42:28;;;;;;;12.57;2.30;;;18.00;99.90;;;;;;5075533;28;20515;-68
2022/10/27 11:45:34;;;;;;;9.30;2.40;;;18.10;99.90;;;;;;5076808;28;20056;-67
2022/10/27 11:48:08;;;;;;;7.32;2.20;;;18.10;99.90;;;;;;5075767;28;20066;-67
2022/10/27 11:50:37;;;;;;;;;;;18.10;99.90;;;;;;5077073;28;20071;-66
2022/10/27 11:53:03;;;;;;;6.40;2.20;;;18.20;99.90;;;;;;5076719;28;19920;-69
2022/10/27 11:56:06;;;;;;;6.70;2.30;;;18.20;99.90;;;;;;5076277;28;20059;-66
2022/10/27 11:58:49;;;;;;;7.10;2.20;;;18.30;99.90;;;;;;5074113;28;20102;-70
2022/10/27 12:01:42;;;;;;;5.33;2.10;;;18.40;99.90;;;;;;5076747;28;20048;-68
2022/10/27 12:04:19;;;;;;;6.37;2.00;;;18.40;99.90;;;;;;5075497;28;20377;-67
2022/10/27 12:06:57;;;;;;;8.50;2.10;;;18.50;99.90;;;;;;5076120;28;20054;-68
2022/10/27 12:09:48;;;;;;;6.50;1.80;;;18.60;99.90;;;;;;5076243;28;20064;-69
2022/10/27 12:12:30;;;;;;;4.30;2.03;;;18.60;99.90;;;;;;5076504;28;20049;-68
2022/10/27 12:15:02;;;;;;;5.90;2.40;;;18.60;99.90;;;;;;5076466;28;20056;-70
2022/10/27 12:17:38;;;;;;;8.97;2.27;;;18.70;99.90;;;;;;5075941;28;20044;-68
2022/10/27 12:20:08;;;;;;;5.13;1.83;;;18.70;99.90;;;;;;5076445;28;20401;-70
2022/10/27 12:22:45;;;;;;;5.63;1.80;;;18.70;99.90;;;;;;5075796;28;20044;-71
2022/10/27 12:25:13;;;;;;;4.57;1.70;;;18.70;99.90;;;;;;5074521;28;20143;-71
2022/10/27 12:27:44;;;;;;;10.43;2.23;;;18.70;99.90;;;;;;5075724;28;20136;-68
2022/10/27 12:30:18;;;;;;;6.80;1.70;;;18.70;99.90;;;;;;5076045;28;20044;-68
2022/10/27 12:32:49;;;;;;;3.45;1.50;;;18.70;99.90;;;;;;5075674;28;20067;-68
2022/10/27 12:35:21;;;;;;;6.73;1.60;;;18.70;99.90;;;;;;5076173;28;20436;-68
2022/10/27 12:38:07;;;;;;;6.23;1.50;;;18.80;99.90;;;;;;5075826;28;20437;-68
2022/10/27 12:41:02;;;;;;;5.53;1.83;;;18.80;99.90;;;;;;5075678;28;20098;-68
2022/10/27 12:43:43;;;;;;;6.20;1.65;;;18.80;99.90;;;;;;5075039;28;20103;-68
2022/10/27 12:46:22;;;;;;;4.80;1.60;;;18.90;99.90;;;;;;5075689;28;20101;-68
2022/10/27 12:49:23;;;;;;;6.43;1.60;;;18.80;99.90;;;;;;5075424;28;20052;-68
2022/10/27 12:52:22;;;;;;;8.67;1.60;;;18.80;99.90;;;;;;5075281;28;20123;-70
2022/10/27 12:54:51;;;;;;;4.87;1.50;;;18.80;99.90;;;;;;5074929;28;20146;-77